Time;durP1;ratioP1;P1;durP2;ratioP2;P2;SDS_P1;SDS_P2;PMS_P1;PMS_P2;Temp;Humidity;BMP_temperature;BMP_pressure;BME280_temperature;BME280_humidity;BME280_pressure;Samples;Min_cycle;Max_cycle;Signal;HPM_P1;HPM_P2
2021/01/08 00:02:18;;;;;;;0.30;0.30;;;;;;;0.05;4.47;-866137.13;5075721;28;20120;-90
2021/01/08 00:04:44;;;;;;;7.28;1.95;;;;;;;0.05;4.47;-852536.75;5075514;28;20067;-90
2021/01/08 00:07:11;;;;;;;0.45;0.45;;;;;;;0.05;4.47;-835050.50;5075536;28;20621;-91
2021/01/08 00:09:37;;;;;;;1.58;1.17;;;;;;;0.05;4.48;-830193.19;5076566;28;20066;-90
2021/01/08 00:12:02;;;;;;;0.90;0.90;;;;;;;0.05;4.48;-802992.13;5075481;28;20119;-91
2021/01/08 00:14:28;;;;;;;2.95;0.60;;;;;;;0.05;4.47;-759276.00;5076440;28;20042;-92
2021/01/08 00:16:53;;;;;;;0.90;0.88;;;;;;;0.05;4.47;-749561.13;5077035;28;20036;-92
2021/01/08 00:19:18;;;;;;;0.95;0.82;;;;;;;0.05;4.47;-769962.75;5075339;28;20115;-91
2021/01/08 00:21:44;;;;;;;0.35;0.35;;;;;;;0.05;4.46;-800078.13;5076478;28;20036;-91
2021/01/08 00:24:11;;;;;;;0.85;0.85;;;;;;;0.05;4.47;-796192.25;5076362;28;20025;-92
2021/01/08 00:26:37;;;;;;;12.48;1.50;;;;;;;0.05;4.47;-797163.69;5075339;28;20404;-92
2021/01/08 00:29:04;;;;;;;2.65;1.75;;;;;;;0.05;4.47;-797163.25;5075254;28;20041;-91
2021/01/08 00:31:41;;;;;;;1.65;1.55;;;;;;;0.05;4.47;-821450.00;5075136;28;20559;-92
2021/01/08 00:34:08;;;;;;;3.28;1.20;;;;;;;0.05;4.46;-827278.75;5075304;28;20036;-91
2021/01/08 00:36:35;;;;;;;0.40;0.40;;;;;;;0.05;4.47;-816592.63;5075169;28;20032;-91
2021/01/08 00:39:02;;;;;;;1.33;1.23;;;;;;;0.05;4.48;-815621.19;5076181;28;20038;-91
2021/01/08 00:41:35;;;;;;;2.67;2.47;;;;;;;0.05;4.48;-784534.06;5074889;28;20032;-92
2021/01/08 00:44:01;;;;;;;0.20;0.20;;;;;;;0.05;4.48;-796191.75;5075911;28;20028;-93
2021/01/08 00:46:34;;;;;;;1.38;1.27;;;;;;;0.05;4.48;-815621.19;5074654;28;20032;-91
2021/01/08 00:49:01;;;;;;;1.38;1.35;;;;;;;0.05;4.48;-807849.50;5074693;28;20029;-92
2021/01/08 00:51:27;;;;;;;1.70;1.60;;;;;;;0.05;4.48;-840879.25;5074636;28;20451;-91
2021/01/08 00:53:52;;;;;;;0.52;0.52;;;;;;;0.05;4.47;-853508.25;5075878;28;20105;-92
2021/01/08 00:56:19;;;;;;;2.33;1.75;;;;;;;0.05;4.47;-870994.38;5074655;28;20025;-92
2021/01/08 00:58:45;;;;;;;1.65;1.30;;;;;;;0.05;4.47;-875851.69;5074330;28;20036;-92
2021/01/08 01:01:11;;;;;;;1.85;1.67;;;;;;;0.05;4.49;-860308.44;5074978;28;20027;-91
2021/01/08 01:03:36;;;;;;;0.75;0.75;;;;;;;0.05;4.49;-844765.13;5074645;28;20454;-91
2021/01/08 01:06:02;;;;;;;1.77;1.67;;;;;;;0.05;4.48;-848651.00;5075308;28;20024;-91
2021/01/08 01:08:27;;;;;;;0.65;0.65;;;;;;;0.05;4.48;-832136.56;5075218;28;20081;-91
2021/01/08 01:10:53;;;;;;;1.45;1.35;;;;;;;0.05;4.49;-808821.38;5074371;28;20190;-92
2021/01/08 01:13:18;;;;;;;4.20;0.73;;;;;;;0.05;4.49;-778706.13;5074245;28;20028;-91
2021/01/08 01:15:43;;;;;;;0.47;0.47;;;;;;;0.05;4.49;-764133.88;5075425;28;20089;-91
2021/01/08 01:18:10;;;;;;;1.23;1.23;;;;;;;0.05;4.49;-757333.50;5074632;28;20032;-92
2021/01/08 01:20:35;;;;;;;5.05;1.05;;;;;;;0.05;4.49;-768019.88;5074439;28;20028;-90
2021/01/08 01:23:01;;;;;;;0.55;0.55;;;;;;;0.05;4.50;-748590.13;5073908;28;20025;-90
2021/01/08 01:25:26;;;;;;;0.80;0.80;;;;;;;0.05;4.50;-749561.63;5074277;28;20028;-91
2021/01/08 01:27:51;;;;;;;1.25;1.15;;;;;;;0.05;4.50;-734989.25;5075069;28;20093;-91
2021/01/08 01:30:17;;;;;;;0.63;0.63;;;;;;;0.05;4.50;-762190.88;5073920;28;20025;-91
2021/01/08 01:32:43;;;;;;;0.30;0.30;;;;;;;0.05;4.50;-799107.13;5075346;28;20060;-90
2021/01/08 01:35:09;;;;;;;2.08;1.85;;;;;;;0.05;4.51;-810764.75;5073852;28;20115;-91
2021/01/08 01:37:34;;;;;;;1.67;1.55;;;;;;;0.05;4.50;-831165.56;5073636;28;20523;-91
2021/01/08 01:40:00;;;;;;;1.60;1.17;;;;;;;0.05;4.50;-814650.63;5073763;28;20028;-91
2021/01/08 01:42:26;;;;;;;0.68;0.68;;;;;;;0.05;4.51;-787449.38;5074562;28;20039;-91
2021/01/08 01:44:51;;;;;;;0.50;0.50;;;;;;;0.05;4.51;-767048.38;5074669;28;20021;-91
2021/01/08 01:47:17;;;;;;;0.63;0.60;;;;;;;0.05;4.51;-755390.50;5073386;28;20032;-91
2021/01/08 01:49:42;;;;;;;1.80;1.70;;;;;;;0.05;4.51;-715559.38;5074495;28;20407;-91
2021/01/08 01:52:08;;;;;;;0.90;0.90;;;;;;;0.05;4.51;-686414.38;5073486;28;20033;-89
2021/01/08 01:54:33;;;;;;;1.85;1.75;;;;;;;0.05;4.52;-679613.75;5073478;28;20511;-91
2021/01/08 01:56:58;;;;;;;0.95;0.95;;;;;;;0.05;4.52;-681556.81;5073209;28;20127;-90
2021/01/08 01:59:24;;;;;;;1.83;1.73;;;;;;;0.05;4.52;-691271.88;5073285;28;20067;-88
2021/01/08 02:01:49;;;;;;;1.92;1.67;;;;;;;0.05;4.52;-699043.88;5074297;28;20111;-90
2021/01/08 02:04:16;;;;;;;1.20;1.20;;;;;;;0.05;4.52;-704872.88;5073531;28;20035;-90
2021/01/08 02:06:42;;;;;;;1.80;1.70;;;;;;;0.05;4.52;-700986.88;5072950;28;20029;-91
2021/01/08 02:09:12;;;;;;;0.80;0.80;;;;;;;0.05;4.53;-698072.38;5073102;28;20066;-91
2021/01/08 02:11:41;;;;;;;0.77;0.77;;;;;;;0.05;4.53;-696129.38;5073041;28;20040;-90
2021/01/08 02:14:12;;;;;;;0.73;0.73;;;;;;;0.05;4.53;-706815.88;5072982;28;20025;-90
2021/01/08 02:16:39;;;;;;;1.00;0.88;;;;;;;0.05;4.53;-729160.31;5073049;28;20095;-90
2021/01/08 02:19:08;;;;;;;1.17;0.88;;;;;;;0.05;4.53;-754419.06;5072873;28;20063;-90
2021/01/08 02:21:42;;;;;;;1.83;1.55;;;;;;;0.05;4.54;-773848.75;5072895;28;20036;-91
2021/01/08 02:24:20;;;;;;;0.30;0.30;;;;;;;0.05;4.53;-806878.88;5074033;28;20411;-91
2021/01/08 02:26:46;;;;;;;1.85;1.75;;;;;;;0.05;4.53;-808821.88;5072474;28;20033;-92
2021/01/08 02:29:12;;;;;;;4.57;3.03;;;;;;;0.05;4.53;-795221.25;5072714;28;20039;-92
2021/01/08 02:31:38;;;;;;;0.43;0.40;;;;;;;0.05;4.53;-772877.25;5073701;28;20033;-92
2021/01/08 02:34:04;;;;;;;0.98;0.90;;;;;;;0.05;4.54;-751504.63;5073878;28;20127;-91
2021/01/08 02:36:31;;;;;;;0.73;0.73;;;;;;;0.05;4.54;-747618.63;5072824;28;20024;-91
2021/01/08 02:38:57;;;;;;;0.90;0.90;;;;;;;0.05;4.54;-764133.88;5072394;28;20067;-91
2021/01/08 02:41:25;;;;;;;1.98;0.85;;;;;;;0.05;4.55;-784535.00;5073078;28;20032;-90
2021/01/08 02:43:52;;;;;;;1.60;1.50;;;;;;;0.05;4.55;-823393.81;5072486;28;20028;-91
2021/01/08 02:46:18;;;;;;;0.52;0.52;;;;;;;0.05;4.55;-821450.88;5072358;28;20038;-91
2021/01/08 02:48:43;;;;;;;0.80;0.80;;;;;;;0.05;4.55;-873909.63;5072727;28;20036;-91
2021/01/08 02:51:09;;;;;;;1.23;1.23;;;;;;;0.05;4.55;-882652.75;5072509;28;20039;-91
2021/01/08 02:53:37;;;;;;;0.40;0.40;;;;;;;0.05;4.55;-927339.06;5073442;28;20052;-91
2021/01/08 02:56:07;;;;;;;1.35;1.27;;;;;;;0.05;4.54;-941910.56;5072375;28;20442;-91
2021/01/08 02:58:35;;;;;;;1.27;1.17;;;;;;;0.05;4.54;-944824.88;5072150;28;20032;-91
2021/01/08 03:01:02;;;;;;;2.63;1.42;;;;;;;0.05;4.55;-939968.13;5072004;28;20024;-90
2021/01/08 03:03:29;;;;;;;0.30;0.30;;;;;;;0.05;4.56;-923453.75;5072154;28;20036;-90
2021/01/08 03:05:58;;;;;;;0.93;0.93;;;;;;;0.05;4.56;-931225.25;5072411;28;20024;-90
2021/01/08 03:08:25;;;;;;;0.73;0.73;;;;;;;0.05;4.55;-956482.38;5073278;28;20064;-90
2021/01/08 03:10:50;;;;;;;1.75;1.65;;;;;;;0.05;4.55;-975910.44;5073531;28;20032;-90
2021/01/08 03:13:17;;;;;;;1.77;1.67;;;;;;;0.05;4.55;-1001167.31;5072511;28;20028;-93
2021/01/08 03:15:42;;;;;;;0.65;0.65;;;;;;;0.05;4.55;-1001167.31;5073958;28;20032;-93
2021/01/08 03:18:08;;;;;;;0.40;0.40;;;;;;;0.05;4.55;-1001167.75;5073917;28;20050;-92
2021/01/08 03:20:33;;;;;;;0.38;0.38;;;;;;;0.05;4.55;-997282.13;5073296;28;20060;-92
2021/01/08 03:22:59;;;;;;;0.50;0.50;;;;;;;0.05;4.54;-1006024.81;5072436;28;20060;-87
2021/01/08 03:25:24;;;;;;;0.73;0.73;;;;;;;0.05;4.54;-985625.13;5072181;28;20090;-91
2021/01/08 03:27:50;;;;;;;2.55;1.98;;;;;;;0.05;4.55;-970082.38;5072064;28;20128;-91
2021/01/08 03:30:16;;;;;;;0.55;0.55;;;;;;;0.05;4.55;-966196.69;5071953;28;20032;-90
2021/01/08 03:32:41;;;;;;;1.05;1.05;;;;;;;0.05;4.56;-971053.75;5071940;28;20036;-90
2021/01/08 03:35:07;;;;;;;0.93;0.93;;;;;;;0.05;4.55;-986596.50;5071596;28;20031;-91
2021/01/08 03:37:33;;;;;;;0.68;0.68;;;;;;;0.05;4.55;-981739.38;5071630;28;20028;-91
2021/01/08 03:39:58;;;;;;;1.27;1.08;;;;;;;0.05;4.56;-974939.50;5072299;28;20035;-91
2021/01/08 03:42:24;;;;;;;0.28;0.28;;;;;;;0.05;4.56;-950653.88;5072082;28;20032;-91
2021/01/08 03:44:49;;;;;;;0.63;0.63;;;;;;;0.05;4.56;-932196.69;5072091;28;20074;-92
2021/01/08 03:47:15;;;;;;;1.00;1.00;;;;;;;0.05;4.55;-934139.50;5072551;28;20150;-92
2021/01/08 03:49:41;;;;;;;1.13;1.13;;;;;;;0.05;4.55;-950653.88;5071851;28;20115;-92
2021/01/08 03:52:07;;;;;;;0.88;0.88;;;;;;;0.05;4.55;-971053.75;5072498;28;20028;-91
2021/01/08 03:54:33;;;;;;;1.85;1.75;;;;;;;0.05;4.55;-1009910.50;5071369;28;20040;-92
2021/01/08 03:56:58;;;;;;;2.20;2.00;;;;;;;0.05;4.55;-1049738.13;5072277;28;20040;-91
2021/01/08 03:59:24;;;;;;;1.02;0.95;;;;;;;0.05;4.54;-1100250.50;5073286;28;20028;-90
2021/01/08 04:01:50;;;;;;;1.33;1.33;;;;;;;0.05;4.54;-1129391.50;5072687;28;20028;-90
2021/01/08 04:04:15;;;;;;;0.75;0.75;;;;;;;0.05;4.54;-1147847.50;5071527;28;20186;-90
2021/01/08 04:06:40;;;;;;;4.03;1.27;;;;;;;0.05;4.54;-1188644.88;5072772;28;20028;-91
2021/01/08 04:09:06;;;;;;;1.20;1.20;;;;;;;0.05;4.54;-1192530.25;5073165;28;20468;-91
2021/01/08 04:11:32;;;;;;;1.50;1.40;;;;;;;0.05;4.54;-1199329.75;5075321;28;20028;-91
2021/01/08 04:13:58;;;;;;;1.38;0.77;;;;;;;0.05;4.54;-1223613.63;5075194;28;20056;-92
2021/01/08 04:16:23;;;;;;;1.48;1.30;;;;;;;0.05;4.54;-1264410.00;5075871;28;20028;-91
2021/01/08 04:18:48;;;;;;;2.35;2.25;;;;;;;0.05;4.54;-1287722.00;5075291;28;20051;-91
2021/01/08 04:21:15;;;;;;;3.72;3.47;;;;;;;0.05;4.53;-1316861.75;5075128;28;20033;-91
2021/01/08 04:23:41;;;;;;;2.90;2.80;;;;;;;0.05;4.53;-1354743.13;5075043;28;20472;-91
2021/01/08 04:26:07;;;;;;;1.58;1.48;;;;;;;0.05;4.53;-1398451.75;5076125;28;20070;-90
2021/01/08 04:28:33;;;;;;;2.15;1.35;;;;;;;0.05;4.53;-1396509.25;5075158;28;20457;-90
2021/01/08 04:30:58;;;;;;;1.10;1.10;;;;;;;0.05;4.53;-1406222.13;5074939;28;20028;-90
2021/01/08 04:33:24;;;;;;;1.58;1.45;;;;;;;0.05;4.53;-1425648.00;5075553;28;20032;-91
2021/01/08 04:35:52;;;;;;;0.52;0.50;;;;;;;0.05;4.53;-1415935.13;5074457;28;20051;-91
2021/01/08 04:38:18;;;;;;;1.33;1.23;;;;;;;0.05;4.53;-1401365.63;5076192;28;20034;-90
2021/01/08 04:40:43;;;;;;;1.45;1.35;;;;;;;0.05;4.53;-1410107.38;5074701;28;20123;-90
2021/01/08 04:43:09;;;;;;;1.48;1.48;;;;;;;0.05;4.53;-1409136.00;5075892;28;20107;-89
2021/01/08 04:45:35;;;;;;;1.30;1.10;;;;;;;0.05;4.54;-1396509.25;5076283;28;20031;-90
2021/01/08 04:48:03;;;;;;;2.30;2.05;;;;;;;0.05;4.54;-1406222.13;5072917;28;20035;-90
2021/01/08 04:50:30;;;;;;;1.77;1.17;;;;;;;0.05;4.54;-1437303.50;5074279;28;20480;-91
2021/01/08 04:52:56;;;;;;;0.65;0.65;;;;;;;0.05;4.54;-1460614.25;5074043;28;20056;-92
2021/01/08 04:55:24;;;;;;;2.28;1.65;;;;;;;0.05;4.53;-1492666.25;5074431;28;20044;-92
2021/01/08 04:57:53;;;;;;;1.50;0.75;;;;;;;0.05;4.53;-1545114.50;5075744;28;20119;-92
2021/01/08 05:00:18;;;;;;;1.98;1.83;;;;;;;0.05;4.52;-1603389.25;5074594;28;20033;-91
2021/01/08 05:02:44;;;;;;;3.72;1.20;;;;;;;0.05;4.51;-1662634.13;5075066;28;20039;-91
2021/01/08 05:05:13;;;;;;;1.95;1.35;;;;;;;0.05;4.51;-1698569.13;5074445;28;20025;-91
2021/01/08 05:07:39;;;;;;;0.80;0.80;;;;;;;0.05;4.52;-1734503.75;5074439;28;20028;-91
2021/01/08 05:10:04;;;;;;;2.63;1.55;;;;;;;0.05;4.51;-1768495.50;5074747;28;20031;-86
2021/01/08 05:12:44;;;;;;;1.75;1.70;;;;;;;0.05;4.52;-1785976.88;5074178;28;20033;-86
2021/01/08 05:15:13;;;;;;;5.43;2.30;;;;;;;0.05;4.52;-1780149.75;5074038;28;20029;-87
2021/01/08 05:17:43;;;;;;;3.05;2.30;;;;;;;0.05;4.52;-1799573.38;5075343;28;20028;-86
2021/01/08 05:20:10;;;;;;;0.63;0.63;;;;;;;0.05;4.52;-1828708.25;5073412;28;20029;-86
2021/01/08 05:22:38;;;;;;;1.45;1.35;;;;;;;0.05;4.52;-1835506.88;5074695;28;20484;-86
2021/01/08 05:25:08;;;;;;;2.83;2.65;;;;;;;0.05;4.52;-1879209.25;5073996;28;20032;-86
2021/01/08 05:27:34;;;;;;;2.20;2.10;;;;;;;0.05;4.52;-1877266.88;5074895;28;20036;-86
2021/01/08 05:30:19;;;;;;;1.17;1.17;;;;;;;0.05;4.52;-1884064.50;5074951;28;20079;-86
2021/01/08 05:32:46;;;;;;;3.72;1.42;;;;;;;0.05;4.52;-1887949.25;5074808;28;20035;-87
2021/01/08 05:35:15;;;;;;;1.67;1.58;;;;;;;0.05;4.52;-1911256.75;5073784;28;20404;-87
2021/01/08 05:37:43;;;;;;;6.07;2.63;;;;;;;0.05;4.52;-1963698.25;5073729;28;20032;-90
2021/01/08 05:40:09;;;;;;;6.83;4.40;;;;;;;0.05;4.52;-2002543.00;5074204;28;20476;-89
2021/01/08 05:42:47;;;;;;;2.70;2.50;;;;;;;0.05;4.52;-2066636.25;5073683;28;20320;-89
2021/01/08 05:45:13;;;;;;;1.55;1.20;;;;;;;0.05;4.52;-2056925.25;5074696;28;20094;-87
2021/01/08 05:47:39;;;;;;;1.55;1.30;;;;;;;0.05;4.53;-2049156.38;5073479;28;20020;-89
2021/01/08 05:50:06;;;;;;;3.33;1.33;;;;;;;0.05;4.53;-2054983.00;5075031;28;20033;-88
2021/01/08 05:52:32;;;;;;;0.90;0.90;;;;;;;0.05;4.53;-2090913.75;5073212;28;20071;-88
2021/01/08 05:54:59;;;;;;;0.90;0.90;;;;;;;0.05;4.53;-2113248.75;5074212;28;20119;-88
2021/01/08 05:57:25;;;;;;;1.60;1.52;;;;;;;0.05;4.53;-2146265.75;5071545;28;20032;-88
2021/01/08 05:59:51;;;;;;;4.25;2.72;;;;;;;0.05;4.52;-2162774.00;5072324;28;20044;-87
2021/01/08 06:02:17;;;;;;;1.42;1.38;;;;;;;0.05;4.52;-2187050.75;5071350;28;20028;-87
2021/01/08 06:04:43;;;;;;;1.42;1.33;;;;;;;0.05;4.53;-2197732.50;5072204;28;20036;-87
2021/01/08 06:07:15;;;;;;;0.70;0.70;;;;;;;0.05;4.52;-2244343.25;5072167;28;20024;-88
2021/01/08 06:09:49;;;;;;;0.50;0.50;;;;;;;0.05;4.52;-2290953.25;5072511;28;20025;-89
2021/01/08 06:12:16;;;;;;;2.55;1.98;;;;;;;0.05;4.52;-2302605.75;5074257;28;20495;-88
2021/01/08 06:14:42;;;;;;;1.70;1.53;;;;;;;0.05;4.52;-2319113.25;5073059;28;20064;-88
2021/01/08 06:17:08;;;;;;;1.55;1.48;;;;;;;0.05;4.51;-2378345.50;5074138;28;20113;-88
2021/01/08 06:19:34;;;;;;;6.13;2.67;;;;;;;0.05;4.51;-2429808.50;5074128;28;20067;-88
2021/01/08 06:22:00;;;;;;;2.10;2.00;;;;;;;0.05;4.51;-2460880.25;5074068;28;20396;-87
2021/01/08 06:24:28;;;;;;;1.88;1.77;;;;;;;0.05;4.50;-2511371.25;5073749;28;20073;-88
2021/01/08 06:26:54;;;;;;;2.35;2.15;;;;;;;0.05;4.50;-2522051.75;5072861;28;20452;-88
2021/01/08 06:29:24;;;;;;;12.95;6.15;;;;;;;0.05;4.51;-2550209.75;5073913;28;20080;-87
2021/01/08 06:31:50;;;;;;;14.73;4.72;;;;;;;0.05;4.50;-2570600.00;5073374;28;20039;-88
2021/01/08 06:34:25;;;;;;;1.45;1.08;;;;;;;0.05;4.50;-2617205.50;5072430;28;20492;-88
2021/01/08 06:37:14;;;;;;;3.92;3.40;;;;;;;0.05;4.49;-2683228.75;5073659;28;20025;-88
2021/01/08 06:39:44;;;;;;;47.80;21.10;;;;;;;0.05;4.50;-2674490.50;5073869;28;20020;-88
2021/01/08 06:42:19;;;;;;;89.93;37.25;;;;;;;0.05;4.50;-2706530.25;5073875;28;20075;-89
2021/01/08 06:44:45;;;;;;;21.75;13.00;;;;;;;0.05;4.49;-2769639.25;5072675;28;20044;-88
2021/01/08 06:47:16;;;;;;;95.07;45.45;;;;;;;0.05;4.49;-2844397.00;5072526;28;20039;-88
2021/01/08 06:49:46;;;;;;;161.57;50.35;;;;;;;0.05;4.48;-2911386.50;5073833;28;20021;-88
2021/01/08 06:52:14;;;;;;;43.45;22.05;;;;;;;0.05;4.47;-2981287.25;5072405;28;20029;-88
2021/01/08 06:54:42;;;;;;;47.58;19.70;;;;;;;0.05;4.48;-3037595.25;5073597;28;20064;-88
2021/01/08 06:57:16;;;;;;;48.30;24.27;;;;;;;0.05;4.47;-3045361.75;5073471;28;20028;-88
2021/01/08 06:59:51;;;;;;;96.93;25.10;;;;;;;0.05;4.47;-3058953.25;5073434;28;20028;-88
2021/01/08 07:02:19;;;;;;;125.53;48.85;;;;;;;0.05;4.48;-3080311.00;5073538;28;20115;-88
2021/01/08 07:04:46;;;;;;;89.47;32.00;;;;;;;0.05;4.47;-3085165.00;5073424;28;20036;-88
2021/01/08 07:07:23;;;;;;;28.85;11.02;;;;;;;0.05;4.48;-3064778.00;5072584;28;20020;-88
2021/01/08 07:09:50;;;;;;;44.50;17.67;;;;;;;0.05;4.49;-3038566.00;5072570;28;20086;-88
2021/01/08 07:12:15;;;;;;;4.50;4.20;;;;;;;0.05;4.48;-3025945.50;5072089;28;20385;-88
2021/01/08 07:14:41;;;;;;;11.20;8.82;;;;;;;0.05;4.49;-2993908.00;5072033;28;20039;-88
2021/01/08 07:17:12;;;;;;;16.42;8.85;;;;;;;0.05;4.49;-3031770.25;5072223;28;20036;-88
2021/01/08 07:19:43;;;;;;;30.10;13.52;;;;;;;0.05;4.49;-3087106.00;5071902;28;20032;-88
2021/01/08 07:22:15;;;;;;;4.25;3.92;;;;;;;0.05;4.48;-3132733.50;5072074;28;20021;-88
2021/01/08 07:24:41;;;;;;;114.57;44.80;;;;;;;0.05;4.48;-3162828.00;5071979;28;20033;-88
2021/01/08 07:27:26;;;;;;;60.15;34.15;;;;;;;0.05;4.48;-3193892.75;5073111;28;20108;-88
2021/01/08 07:29:54;;;;;;;37.03;20.63;;;;;;;0.06;4.47;-3243401.25;5072221;28;20064;-88
2021/01/08 07:32:36;;;;;;;79.47;35.45;;;;;;;0.06;4.46;-3327856.00;5073028;28;20032;-88
2021/01/08 07:35:16;;;;;;;33.55;18.00;;;;;;;0.06;4.46;-3410367.50;5071757;28;20033;-88
2021/01/08 07:38:04;;;;;;;18.02;12.57;;;;;;;0.06;4.45;-3507436.75;5073333;28;20033;-88
2021/01/08 07:40:34;;;;;;;32.53;19.17;;;;;;;0.06;4.44;-3590913.75;5073022;28;20029;-87
2021/01/08 07:43:04;;;;;;;45.30;16.98;;;;;;;0.06;4.44;-3634593.00;5072890;28;20031;-88
2021/01/08 07:45:57;;;;;;;32.42;12.95;;;;;;;0.06;4.45;-3644299.50;5075676;28;20032;-88
2021/01/08 07:48:27;;;;;;;45.17;24.42;;;;;;;0.06;4.45;-3640417.00;5075818;28;20036;-89
2021/01/08 07:51:02;;;;;;;6.85;5.95;;;;;;;0.06;4.46;-3648182.00;5076993;28;20035;-88
2021/01/08 07:54:01;;;;;;;28.35;7.45;;;;;;;0.06;4.46;-3654976.50;5075399;28;20088;-88
2021/01/08 07:56:27;;;;;;;19.73;13.90;;;;;;;0.06;4.47;-3647211.50;5075909;28;20024;-88
2021/01/08 07:59:03;;;;;;;14.15;6.18;;;;;;;0.06;4.47;-3638475.50;5076523;28;20051;-88
2021/01/08 08:01:30;;;;;;;17.80;4.07;;;;;;;0.06;4.47;-3686036.75;5076453;28;20119;-88
2021/01/08 08:04:05;;;;;;;10.68;8.07;;;;;;;0.06;4.46;-3721949.75;5075391;28;20035;-89
2021/01/08 08:06:32;;;;;;;3.53;3.22;;;;;;;0.06;4.46;-3713214.25;5075629;28;20496;-88
2021/01/08 08:09:03;;;;;;;5.88;3.35;;;;;;;0.06;4.47;-3722920.50;5075352;28;20036;-89
2021/01/08 08:11:30;;;;;;;2.10;2.00;;;;;;;0.06;4.47;-3784068.75;5076481;28;20107;-88
2021/01/08 08:13:55;;;;;;;1.67;1.67;;;;;;;0.06;4.46;-3912185.25;5075183;28;20036;-88
2021/01/08 08:16:31;;;;;;;3.05;2.85;;;;;;;0.06;4.45;-4053883.75;5075062;28;20032;-88
2021/01/08 08:18:57;;;;;;;2.45;2.35;;;;;;;0.06;4.44;-4203340.00;5075059;28;20040;-89
2021/01/08 08:21:23;;;;;;;13.63;2.65;;;;;;;0.06;4.43;-4374139.50;5076155;28;20028;-88
2021/01/08 08:23:57;;;;;;;4.32;3.35;;;;;;;0.06;4.41;3852411.25;5075034;28;20070;-88
2021/01/08 08:26:24;;;;;;;1.15;1.13;;;;;;;0.06;4.39;3664164.00;5076117;28;20090;-88
2021/01/08 08:29:05;;;;;;;2.33;2.22;;;;;;;0.06;4.36;3449729.50;5075965;28;20035;-88
2021/01/08 08:31:33;;;;;;;2.58;2.47;;;;;;;0.06;4.34;3308074.25;5076112;28;20558;-88
2021/01/08 08:34:00;;;;;;;2.53;2.33;;;;;;;0.06;4.36;3263444.50;5075125;28;20400;-88
2021/01/08 08:36:26;;;;;;;1.65;1.63;;;;;;;0.06;4.36;3207173.00;5074594;28;20032;-88
2021/01/08 08:39:09;;;;;;;1.50;1.40;;;;;;;0.06;4.35;3153813.00;5074670;28;20039;-88
2021/01/08 08:41:37;;;;;;;3.15;2.95;;;;;;;0.06;4.36;3140230.50;5074737;28;20036;-88
2021/01/08 08:44:14;;;;;;;5.10;2.72;;;;;;;0.06;4.36;3142171.00;5075794;28;20032;-88
2021/01/08 08:46:56;;;;;;;23.13;6.97;;;;;;;0.06;4.36;3104334.50;5075966;28;20035;-88
2021/01/08 08:49:32;;;;;;;124.75;56.55;;;;;;;0.06;4.38;3161574.50;5074863;28;20029;-88
2021/01/08 08:51:59;;;;;;;35.45;27.25;;;;;;;0.06;4.40;3266355.25;5075716;28;20094;-89
2021/01/08 08:54:24;;;;;;;45.95;19.85;;;;;;;0.06;4.41;3342032.25;5074346;28;20561;-88
2021/01/08 08:56:55;;;;;;;10.32;8.07;;;;;;;0.06;4.42;3343972.75;5074594;28;20158;-88
2021/01/08 08:59:42;;;;;;;7.50;5.18;;;;;;;0.06;4.42;3321657.50;5074469;28;20066;-88
2021/01/08 09:02:29;;;;;;;3.78;3.53;;;;;;;0.06;4.41;3328449.00;5074345;28;20024;-90
2021/01/08 09:05:02;;;;;;;4.37;1.53;;;;;;;0.06;4.42;3341062.00;5074420;28;20481;-89
2021/01/08 09:07:40;;;;;;;12.25;3.67;;;;;;;0.06;4.42;3389573.75;5074225;28;20263;-90
2021/01/08 09:10:13;;;;;;;3.88;3.67;;;;;;;0.06;4.44;3492420.25;5074466;28;20485;-88
2021/01/08 09:12:54;;;;;;;5.28;4.15;;;;;;;0.06;4.45;3518617.75;5074134;28;20515;-88
2021/01/08 09:15:27;;;;;;;2.50;2.30;;;;;;;0.06;4.44;3472045.00;5073979;28;20430;-88
2021/01/08 09:18:27;;;;;;;3.67;3.47;;;;;;;0.06;4.43;3433234.50;5075469;28;20024;-88
2021/01/08 09:21:12;;;;;;;1.40;1.40;;;;;;;0.06;4.43;3370169.00;5068813;28;20035;-86
2021/01/08 09:23:43;;;;;;;3.80;1.77;;;;;;;0.06;4.42;3333300.25;5073426;28;20056;-83
2021/01/08 09:26:09;;;;;;;2.58;2.38;;;;;;;0.06;4.43;3306134.00;5074418;28;20048;-86
2021/01/08 09:28:46;;;;;;;6.75;3.50;;;;;;;0.06;4.42;3231428.00;5074093;28;20530;-86
2021/01/08 09:31:13;;;;;;;4.55;4.13;;;;;;;0.06;4.41;3106274.75;5073761;28;20029;-84
2021/01/08 09:33:39;;;;;;;12.95;5.80;;;;;;;0.06;4.39;2968515.00;5073562;28;20476;-84
2021/01/08 09:36:05;;;;;;;4.40;4.07;;;;;;;0.06;4.38;2881205.25;5074294;28;20039;-87
2021/01/08 09:38:32;;;;;;;28.70;6.75;;;;;;;0.06;4.39;2808449.00;5074772;28;20055;-88
2021/01/08 09:40:57;;;;;;;2.55;2.35;;;;;;;0.06;4.38;2694953.00;5073519;28;20067;-84
2021/01/08 09:43:23;;;;;;;5.28;3.97;;;;;;;0.06;4.37;2567880.50;5074964;28;20068;-85
2021/01/08 09:46:04;;;;;;;13.25;4.50;;;;;;;0.06;4.37;2460212.00;5073669;28;20542;-90
2021/01/08 09:48:29;;;;;;;9.95;4.10;;;;;;;0.06;4.38;2402984.25;5074578;28;20028;-91
2021/01/08 09:51:04;;;;;;;9.90;5.20;;;;;;;0.06;4.38;2399104.50;5074791;28;20097;-92
2021/01/08 09:53:30;;;;;;;5.15;4.68;;;;;;;0.06;4.39;2407834.00;5072969;28;20103;-92
2021/01/08 09:56:30;;;;;;;2.63;2.53;;;;;;;0.06;4.39;2421413.50;5077581;28;20464;-92
2021/01/08 09:59:16;;;;;;;21.52;4.72;;;;;;;0.06;4.39;2404924.25;4999202;28;20026;-93
2021/01/08 10:02:01;;;;;;;4.53;4.22;;;;;;;0.06;4.40;2447602.50;5078036;28;20044;-92
2021/01/08 10:04:34;;;;;;;5.30;3.95;;;;;;;0.06;4.40;2482521.50;5075079;28;20100;-86
2021/01/08 10:07:06;;;;;;;2.20;2.10;;;;;;;0.06;4.40;2500950.50;5072998;28;20025;-90
2021/01/08 10:09:51;;;;;;;10.75;2.83;;;;;;;0.06;4.41;2523259.75;5072634;28;20115;-90
2021/01/08 10:12:21;;;;;;;2.80;2.17;;;;;;;0.06;4.40;2508710.00;5073272;28;20036;-92
2021/01/08 10:14:47;;;;;;;3.53;3.25;;;;;;;0.06;4.39;2512590.00;5072954;28;20036;-92
2021/01/08 10:17:17;;;;;;;3.97;3.70;;;;;;;0.06;4.40;2531989.75;5077479;28;20057;-92
2021/01/08 10:19:45;;;;;;;5.35;2.67;;;;;;;0.06;4.41;2584369.75;5078916;28;20028;-93
2021/01/08 10:22:10;;;;;;;;;;;;;;;0.06;4.42;2620260.25;5077015;28;20038;-93
2021/01/08 10:24:36;;;;;;;5.88;3.85;;;;;;;0.06;4.43;2666821.50;5076137;28;19954;-92
2021/01/08 10:27:02;;;;;;;10.35;5.13;;;;;;;0.06;4.44;2732784.25;5073196;28;20032;-92
2021/01/08 10:29:35;;;;;;;6.60;2.30;;;;;;;0.06;4.45;2774496.75;5080194;28;20588;-92
2021/01/08 10:32:10;;;;;;;3.50;3.30;;;;;;;0.06;4.45;2762856.00;5074126;28;20111;-92
2021/01/08 10:34:43;;;;;;;8.48;4.25;;;;;;;0.06;4.46;2742484.75;5073729;28;20031;-91
2021/01/08 10:37:15;;;;;;;4.95;4.15;;;;;;;0.06;4.45;2711443.25;5073649;28;20032;-90
2021/01/08 10:39:41;;;;;;;12.35;4.45;;;;;;;0.06;4.44;2653241.00;5073115;28;20104;-90
2021/01/08 10:42:07;;;;;;;3.80;2.63;;;;;;;0.06;4.43;2591159.75;5073638;28;20121;-90
2021/01/08 10:44:32;;;;;;;3.30;3.05;;;;;;;0.06;4.43;2497070.25;5072429;28;20090;-90
2021/01/08 10:46:57;;;;;;;2.35;2.20;;;;;;;0.06;4.42;2411713.00;5073472;28;20025;-89
2021/01/08 10:49:23;;;;;;;10.18;3.33;;;;;;;0.06;4.42;2342846.75;5072859;28;20035;-90
2021/01/08 10:51:49;;;;;;;6.93;4.75;;;;;;;0.06;4.42;2261373.00;5072268;28;20431;-90
2021/01/08 10:54:17;;;;;;;15.10;2.97;;;;;;;0.06;4.41;2172142.25;5072824;28;20064;-90
2021/01/08 10:56:43;;;;;;;5.90;4.97;;;;;;;0.06;4.40;2078065.50;5072588;28;20115;-92
2021/01/08 10:59:08;;;;;;;6.30;3.80;;;;;;;0.06;4.40;2015995.13;5076218;28;20071;-90
2021/01/08 11:01:44;;;;;;;22.45;1.88;;;;;;;0.06;4.40;1972352.63;5074409;28;20451;-92
2021/01/08 11:04:10;;;;;;;3.95;3.67;;;;;;;0.06;4.40;1951986.25;5076554;28;20043;-92
2021/01/08 11:06:38;;;;;;;5.45;3.92;;;;;;;0.06;4.40;1928710.63;5076396;28;20031;-92
2021/01/08 11:09:04;;;;;;;;;;;;;;;0.06;4.41;1934529.50;5075602;28;20071;-92
2021/01/08 11:11:29;;;;;;;12.10;3.45;;;;;;;0.06;4.41;1892827.63;5073021;28;19909;-92
2021/01/08 11:13:55;;;;;;;3.35;1.60;;;;;;;0.06;4.40;1822032.63;5072356;28;20111;-91
2021/01/08 11:16:20;;;;;;;5.57;1.85;;;;;;;0.06;4.39;1758027.50;5072019;28;20089;-91
2021/01/08 11:18:46;;;;;;;4.32;3.92;;;;;;;0.06;4.39;1721176.63;5073054;28;20025;-92
2021/01/08 11:21:17;;;;;;;4.53;4.07;;;;;;;0.06;4.40;1700811.88;5073298;28;20120;-91
2021/01/08 11:23:42;;;;;;;7.85;3.30;;;;;;;0.06;4.38;1593172.00;5072041;28;20036;-92
2021/01/08 11:26:08;;;;;;;2.53;2.35;;;;;;;0.06;4.36;1435111.88;5072792;28;20519;-91
2021/01/08 11:28:33;;;;;;;4.53;2.90;;;;;;;0.06;4.36;1257667.38;5071998;28;20028;-91
2021/01/08 11:30:59;;;;;;;0.85;0.85;;;;;;;0.06;4.33;1027875.81;5073384;28;20039;-92
2021/01/08 11:33:24;;;;;;;5.95;4.30;;;;;;;0.06;4.32;839788.69;5072360;28;20037;-92
2021/01/08 11:35:49;;;;;;;2.05;1.92;;;;;;;0.06;4.32;757382.56;5072248;28;20054;-91
2021/01/08 11:38:15;;;;;;;6.07;3.25;;;;;;;0.06;4.34;819429.38;5073265;28;20067;-92